Sierra Nevada Aquatic Research Lab (SNARL) Reserve, California Weather observations

Data are for 10 minute period ending at time listed.
 Day   Time   Solar   Ave.   Ave.  Ave.  Vector  Max.   Baro.   Total    
  of    of     Rad.   Air    Rel.  Wind   Wind   Wind  Press.  Precip.   
Year   Day            Temp.  Hum.  Speed  Dir.   Gust                    
2016   (PST)  Kw/m2    F      %     mph   deg.    mph    mb.     in.     
-------------------------------------------------------------------------
 270   18:50   0.00   51.5    28    0.7    80     3.7   789.8    0.00 
 270   19:00   0.00   54.5    28    1.8   193     4.5   789.9    0.00 
 270   19:10   0.00   54.0    28    2.6   155     6.4   789.9    0.00 
 270   19:20   0.00   53.2    31    4.5   155     8.0   790.0    0.00 
 270   19:30   0.00   55.1    27    8.1   147    10.2   790.0    0.00 
 270   19:40   0.00   56.0    28    2.1    38     5.8   790.1    0.00 
 270   19:50   0.00   53.3    31    2.5   308     6.6   790.2    0.00 
 270   20:00   0.00   51.1    33    1.6   271     3.6   790.3    0.00 
 270   20:10   0.00   48.3    36    1.8   258     4.1   790.4    0.00 
 270   20:20   0.00   47.0    41    1.5   312     3.3   790.4    0.00 
 270   20:30   0.00   44.9    44    2.6   294     5.0   790.5    0.00 
 270   20:40   0.00   44.6    38    2.7   297     4.7   790.5    0.00 
 270   20:50   0.00   44.5    36    0.7   258     3.0   790.5    0.00 
 270   21:00   0.00   42.3    38    1.7   235     3.1   790.4    0.00 
 270   21:10   0.00   42.3    42    4.3   325     7.3   790.5    0.00 
 270   21:20   0.00   43.9    37    1.1   301     6.3   790.6    0.00 
 270   21:30   0.00   42.7    40    0.8   261     2.8   790.6    0.00 
 270   21:40   0.00   40.6    43    1.8   261     4.6   790.5    0.00 
 270   21:50   0.00   39.9    46    2.8   321     4.7   790.5    0.00 
 270   22:00   0.00   38.0    47    1.9   305     3.4   790.5    0.00 
 270   22:10   0.00   37.8    47    2.4   306     4.6   790.5    0.00 
 270   22:20   0.00   37.8    45    2.1   301     4.2   790.5    0.00 
 270   22:30   0.00   36.9    45    1.5   268     3.4   790.5    0.00 
 270   22:40   0.00   36.9    46    1.1   248     2.4   790.5    0.00 
 270   22:50   0.00   36.7    47    0.3   209     2.3   790.5    0.00 
 270   23:00   0.00   36.1    47    1.2   242     2.9   790.4    0.00 
 270   23:10   0.00   36.2    48    1.0   253     2.2   790.4    0.00 
 270   23:20   0.00   36.8    49    0.4   230     2.8   790.4    0.00 
 270   23:30   0.00   36.6    48    0.9   232     1.8   790.3    0.00 
 270   23:40   0.00   37.9    52    1.7   329     3.1   790.2    0.00 
 270   23:50   0.00   36.8    52    0.8   285     3.4   790.2    0.00 
 271    0:00   0.00   37.7    51    0.1   234     0.8   790.2    0.00 
 271    0:10   0.00   37.4    52    1.6   308     3.7   790.1    0.00 
 271    0:20   0.00   35.9    54    1.6   310     3.4   790.1    0.00 
 271    0:30   0.00   34.5    52    1.3   224     2.9   790.1    0.00 
 271    0:40   0.00   35.3    54    0.3   243     1.6   790.1    0.00 
 271    0:50   0.00   35.5    58    1.3   255     4.2   790.1    0.00 
 271    1:00   0.00   36.7    54    1.9   240     3.7   790.0    0.00 
 271    1:10   0.00   36.8    53    0.4   245     2.0   790.0    0.00 
 271    1:20   0.00   36.0    55    0.1   179     0.8   789.9    0.00 
 271    1:30   0.00   35.0    59    0.4   227     1.7   789.9    0.00 
 271    1:40   0.00   34.4    54    0.2   237     1.4   789.8    0.00 
 271    1:50   0.00   35.0    56    0.1    76     0.9   789.8    0.00 
 271    2:00   0.00   34.6    53    0.8   229     2.1   789.8    0.00 
 271    2:10   0.00   35.1    53    1.1   226     2.0   789.7    0.00 
 271    2:20   0.00   35.5    55    1.2   205     3.0   789.7    0.00 
 271    2:30   0.00   34.2    54    0.7   165     1.8   789.6    0.00 
 271    2:40   0.00   34.3    54    0.6   178     1.5   789.6    0.00 
 271    2:50   0.00   34.1    53    0.5   214     1.8   789.5    0.00 
 271    3:00   0.00   34.3    57    1.0   261     2.1   789.5    0.00 
 271    3:10   0.00   34.7    59    2.0   268     3.4   789.5    0.00 
 271    3:20   0.00   33.3    57    1.3   262     2.7   789.5    0.00 
 271    3:30   0.00   34.2    60    2.9   305     5.6   789.5    0.00 
 271    3:40   0.00   33.4    56    0.9   354     3.6   789.5    0.00 
 271    3:50   0.00   32.0    59    1.1    88     2.5   789.5    0.00 
 271    4:00   0.00   31.5    64    0.8   251     2.4   789.5    0.00 
 271    4:10   0.00   30.7    61    0.0   210     0.5   789.4    0.00 
 271    4:20   0.00   31.1    62    0.4   206     1.5   789.3    0.00 
 271    4:30   0.00   31.4    64    1.5   251     2.5   789.2    0.00 
 271    4:40   0.00   30.6    62    0.7   243     1.9   789.2    0.00 
 271    4:50   0.00   31.6    66    0.8   285     2.3   789.2    0.00 
 271    5:00   0.00   31.5    68    2.2   293     4.2   789.3    0.00 
 271    5:10   0.00   32.0    61    1.9   292     4.2   789.4    0.00 
 271    5:20   0.00   30.2    63    1.6   271     2.3   789.3    0.00 
 271    5:30   0.00   28.1    66    1.2   242     2.0   789.3    0.00 
 271    5:40   0.00   29.3    72    1.1   305     3.3   789.3    0.00 
 271    5:50   0.00   30.1    64    0.1   320     2.6   789.2    0.00 
 271    6:00   0.00   30.1    69    1.3   314     3.2   789.2    0.00 
 271    6:10   0.02   30.2    61    0.8   252     2.3   789.3    0.00 
 271    6:20   0.05   32.3    59    1.6   249     2.0   789.4    0.00 
 271    6:30   0.08   35.3    57    1.6   267     2.5   789.5    0.00 
 271    6:40   0.12   38.5    52    2.1   324     3.8   789.5    0.00 
 271    6:50   0.15   43.6    43    0.0   147     0.6   789.6    0.00 
 271    7:00   0.18   46.6    39    0.5   320     1.4   789.8    0.00 
 271    7:10   0.22   49.6    37    0.3   356     1.1   789.8    0.00 
 271    7:20   0.25   51.8    35    0.8   146     2.6   789.9    0.00 
 271    7:30   0.27   53.5    32    0.2     2     1.3   790.0    0.00 
 271    7:40   0.32   54.6    32    0.4    19     2.1   790.0    0.00 
 271    7:50   0.36   57.2    29    0.9    54     2.7   790.0    0.00 
 271    8:00   0.39   58.0    29    2.0    51     5.5   790.0    0.00 
 271    8:10   0.43   56.9    30    2.4    61     5.9   790.0    0.00 
 271    8:20   0.46   57.2    31    1.9    75     4.1   789.9    0.00 
 271    8:30   0.49   58.5    30    1.9    53     4.3   789.9    0.00 
 271    8:40   0.52   60.2    29    2.3    64     5.0   789.8    0.00 
 271    8:50   0.55   61.6    27    1.8    55     3.4   789.8    0.00 
 271    9:00   0.58   63.3    26    2.0    41     4.3   789.7    0.00 
 271    9:10   0.61   63.8    25    3.0    80     5.2   789.6    0.00 
 271    9:20   0.64   65.2    24    2.2    69     4.2   789.5    0.00 
 271    9:30   0.66   66.4    22    2.7    62     4.5   789.3    0.00 
 271    9:40   0.69   67.7    22    2.8    65     5.5   789.2    0.00 
 271    9:50   0.71   69.2    20    2.6    85     6.1   789.1    0.00 
 271   10:00   0.73   69.6    19    3.1    82     6.2   789.0    0.00 
 271   10:10   0.74   70.6    19    2.8    39     6.2   788.9    0.00 
 271   10:20   0.77   70.0    18    2.8    44     6.3   788.9    0.00 
 271   10:30   0.78   71.4    18    3.9    79    10.3   788.9    0.00 
 271   10:40   0.80   72.0    18    4.9    76    10.2   788.9    0.00 
 271   10:50   0.80   72.3    17    6.7    90    12.1   788.8    0.00 
 271   11:00   0.82   72.7    16    6.0    83    11.5   788.8    0.00 
 271   11:10   0.83   72.6    15    5.5    84    11.1   788.6    0.00 
 271   11:20   0.83   73.5    14    4.8    76    11.5   788.5    0.00 
 271   11:30   0.84   73.7    14    6.5    93    13.7   788.4    0.00 
 271   11:40   0.84   74.3    13    5.6   118    11.8   788.3    0.00 
 271   11:50   0.84   74.0    13    6.2    86    13.5   788.2    0.00 
 271   12:00   0.84   75.2    14    3.7    60    11.0   788.1    0.00 
 271   12:10   0.84   75.7    13    5.6    84    12.5   787.9    0.00 
 271   12:20   0.83   75.5    13    3.0   103     8.2   787.8    0.00 
 271   12:30   0.83   76.0    13    7.6    88    15.3   787.8    0.00 
 271   12:40   0.82   75.7    13    6.4   101    13.8   787.6    0.00 
 271   12:50   0.82   75.2    13    7.4    95    14.6   787.6    0.00 
 271   13:00   0.81   75.2    13    7.5    82    14.4   787.5    0.00 
 271   13:10   0.79   75.2    13    8.5    96    15.2   787.4    0.00 
 271   13:20   0.77   76.0    13    7.9    85    15.5   787.4    0.00 
 271   13:30   0.75   75.7    12    6.2   105    13.0   787.3    0.00 
 271   13:40   0.73   75.8    12    7.4    92    16.3   787.2    0.00 
 271   13:50   0.71   76.8    12    6.3   101    11.8   787.1    0.00 
 271   14:00   0.69   76.3    12    6.7    82    11.5   787.1    0.00 
 271   14:10   0.67   75.9    11    7.7    93    16.1   787.0    0.00 
 271   14:20   0.64   76.0    11    8.3    98    14.3   786.9    0.00 
 271   14:30   0.62   76.2    12    7.5    88    15.2   786.9    0.00 
 271   14:40   0.59   76.8    12    9.3    91    15.8   786.8    0.00 
 271   14:50   0.56   75.7    13    9.5    93    15.3   786.7    0.00 
 271   15:00   0.53   75.6    13    8.9    89    13.4   786.6    0.00 
 271   15:10   0.50   75.7    12    8.2    99    12.7   786.5    0.00 
 271   15:20   0.46   75.5    12    8.9   106    16.1   786.5    0.00 
 271   15:30   0.43   75.8    13    9.5    97    15.3   786.4    0.00 
 271   15:40   0.40   75.4    13    7.7    99    15.5   786.4    0.00 
 271   15:50   0.36   75.5    13    8.9   115    13.9   786.4    0.00 
 271   16:00   0.33   75.1    13    9.4   108    14.1   786.3    0.00 
 271   16:10   0.29   74.6    13    9.3   118    13.5   786.3    0.00 
 271   16:20   0.26   74.2    14   10.9   122    14.3   786.3    0.00 
 271   16:30   0.22   73.3    14   11.0   124    16.1   786.3    0.00 
 271   16:40   0.19   72.6    14   10.4   120    14.8   786.3    0.00 
 271   16:50   0.15   72.0    15    9.6   125    13.9   786.2    0.00 
 271   17:00   0.12   71.3    15    7.9   122    12.9   786.1    0.00 
 271   17:10   0.09   70.5    15    7.8   125    13.7   786.1    0.00 
 271   17:20   0.02   68.6    16    7.2   125     9.6   786.1    0.00 
 271   17:30   0.01   66.4    18    7.0   126     9.8   785.9    0.00 
 271   17:40   0.00   64.9    18    6.5   139     8.3   785.9    0.00 
 271   17:50   0.00   62.5    20    5.2   140     7.5   785.9    0.00 
 271   18:00   0.00   60.5    25    0.6     9     2.0   785.9    0.00 
 271   18:10   0.00   59.1    24    1.5   219     4.3   786.0    0.00 
 271   18:20   0.00   57.7    26    3.9   285     7.2   786.2    0.00 
 271   18:30   0.00   56.2    25    3.6   225     6.3   786.3    0.00 
 271   18:40   0.00   56.0    28    2.3   239     4.6   786.4    0.00 

Return to SNARL Reserve graphs page.


Western Regional Climate Center,wrcc@dri.edu